Terminal Aerodrome Forecast
Issued by NWS

Home | Current Version | Previous Version | Text Only | Print | Product List | Glossary On
Versions: 1 2 3 4 5 6 7 8 9 10 11 12 13 14 15 16 17 18 19 20 21 22 23 24 25 26 27 28
000
FTUS42 KMFL 291502 AAB
TAFTMB
TAF AMD
KTMB 291502Z 2915/3012 34008KT P6SM VCSH FEW020 FEW250
     FM291700 13009KT P6SM VCSH FEW035
     FM300000 VRB02KT P6SM SKC=

USA.gov is the U.S. government's official web portal to all federal, state and local government web resources and services.